Time;durP1;ratioP1;P1;durP2;ratioP2;P2;SDS_P1;SDS_P2;PMS_P1;PMS_P2;Temp;Humidity;BMP_temperature;BMP_pressure;BME280_temperature;BME280_humidity;BME280_pressure;Samples;Min_cycle;Max_cycle;Signal;HPM_P1;HPM_P2
2022/09/22 00:00:53;;;;;;;2.73;2.47;;;9.50;99.90;;;;;;5032001;28;20412;-69
2022/09/22 00:03:18;;;;;;;2.60;2.40;;;9.40;99.90;;;;;;5033406;28;20772;-68
2022/09/22 00:05:44;;;;;;;2.60;2.40;;;9.40;99.90;;;;;;5032728;28;20563;-69
2022/09/22 00:08:09;;;;;;;2.50;2.30;;;9.40;99.90;;;;;;5031185;28;20241;-69
2022/09/22 00:10:35;;;;;;;3.30;2.77;;;9.40;99.90;;;;;;5032884;28;20175;-69
2022/09/22 00:13:00;;;;;;;2.37;2.20;;;9.30;99.90;;;;;;5032925;28;20183;-69
2022/09/22 00:15:26;;;;;;;2.30;2.10;;;9.30;99.90;;;;;;5031163;28;20181;-68
2022/09/22 00:17:51;;;;;;;4.33;2.43;;;9.30;99.90;;;;;;5032500;28;20200;-69
2022/09/22 00:20:17;;;;;;;2.33;2.13;;;9.30;99.90;;;;;;5031157;28;20531;-69
2022/09/22 00:22:42;;;;;;;3.27;2.63;;;9.20;99.90;;;;;;5032276;28;20679;-68
2022/09/22 00:25:09;;;;;;;4.87;2.93;;;9.20;99.90;;;;;;5032737;28;20179;-69
2022/09/22 00:27:35;;;;;;;2.97;2.77;;;9.20;99.90;;;;;;5032227;28;20176;-69
2022/09/22 00:30:00;;;;;;;4.43;2.23;;;9.20;99.90;;;;;;5033309;28;20495;-69
2022/09/22 00:32:26;;;;;;;2.90;2.60;;;9.30;99.90;;;;;;5036325;28;20549;-68
2022/09/22 00:34:52;;;;;;;3.13;2.80;;;9.30;99.90;;;;;;5036658;28;20536;-69
2022/09/22 00:37:17;;;;;;;3.50;2.80;;;9.40;99.90;;;;;;5036048;28;20411;-69
2022/09/22 00:39:43;;;;;;;3.03;2.30;;;9.40;99.90;;;;;;5036388;28;20205;-69
2022/09/22 00:42:11;;;;;;;2.90;2.70;;;9.30;99.90;;;;;;5033794;28;20645;-69
2022/09/22 00:44:41;;;;;;;5.90;2.83;;;9.30;99.90;;;;;;5036422;28;20438;-69
2022/09/22 00:47:21;;;;;;;3.63;2.53;;;9.30;99.90;;;;;;5036090;28;20922;-69
2022/09/22 00:49:56;;;;;;;3.30;2.93;;;9.20;99.90;;;;;;5036132;28;20427;-69
2022/09/22 00:52:27;;;;;;;3.30;2.90;;;9.20;99.90;;;;;;5036418;28;20427;-69
2022/09/22 00:54:57;;;;;;;3.53;3.20;;;9.10;99.90;;;;;;5034885;28;20961;-69
2022/09/22 00:57:27;;;;;;;3.67;2.73;;;9.10;99.90;;;;;;5035982;28;20421;-68
2022/09/22 00:59:53;;;;;;;2.87;2.57;;;9.10;99.90;;;;;;5036127;28;20434;-68
2022/09/22 01:02:19;;;;;;;2.83;2.50;;;9.10;99.90;;;;;;5035946;28;20747;-69
2022/09/22 01:04:48;;;;;;;2.30;2.10;;;9.00;99.90;;;;;;5034651;28;20823;-69
2022/09/22 01:07:14;;;;;;;3.27;2.60;;;9.00;99.90;;;;;;5036131;28;20445;-69
2022/09/22 01:09:40;;;;;;;3.77;2.70;;;9.00;99.90;;;;;;5035920;28;20427;-69
2022/09/22 01:12:06;;;;;;;5.60;2.80;;;8.90;99.90;;;;;;5035125;28;20429;-69
2022/09/22 01:14:35;;;;;;;3.20;2.90;;;8.90;99.90;;;;;;5036117;28;20223;-69
2022/09/22 01:17:17;;;;;;;3.40;3.10;;;8.90;99.90;;;;;;5035820;28;20406;-69
2022/09/22 01:20:16;;;;;;;2.50;2.30;;;8.90;99.90;;;;;;5035754;28;20462;-69
2022/09/22 01:23:19;;;;;;;2.13;2.00;;;8.80;99.90;;;;;;5035551;28;20875;-68
2022/09/22 01:26:22;;;;;;;2.53;2.33;;;8.70;99.90;;;;;;5035245;28;20414;-69
2022/09/22 01:29:18;;;;;;;3.33;2.80;;;8.70;99.90;;;;;;5033801;28;20960;-69
2022/09/22 01:31:52;;;;;;;2.20;2.00;;;8.70;99.90;;;;;;5035425;28;20390;-70
2022/09/22 01:34:29;;;;;;;2.97;2.57;;;8.70;99.90;;;;;;5034067;28;20785;-69
2022/09/22 01:37:19;;;;;;;3.93;2.10;;;8.70;99.90;;;;;;5036111;28;20392;-69
2022/09/22 01:39:50;;;;;;;2.67;2.47;;;8.70;99.90;;;;;;5035770;28;20426;-69
2022/09/22 01:42:38;;;;;;;2.50;2.30;;;8.60;99.90;;;;;;5018881;28;20466;-69
2022/09/22 01:45:34;;;;;;;2.70;2.50;;;8.70;99.90;;;;;;5018988;28;20906;-69
2022/09/22 01:48:18;;;;;;;3.80;2.50;;;8.70;99.90;;;;;;5031652;28;20432;-69
2022/09/22 01:50:52;;;;;;;2.87;2.50;;;8.70;99.90;;;;;;5035302;28;20388;-69
2022/09/22 01:53:23;;;;;;;2.67;2.17;;;8.70;99.90;;;;;;5035133;28;20476;-69
2022/09/22 01:55:57;;;;;;;2.80;2.60;;;8.70;99.90;;;;;;5035167;28;20399;-69
2022/09/22 01:58:30;;;;;;;2.37;2.17;;;8.70;99.90;;;;;;5034852;28;20426;-69
2022/09/22 02:01:05;;;;;;;3.33;2.57;;;8.70;99.90;;;;;;5034059;28;20413;-66
2022/09/22 02:03:39;;;;;;;2.40;2.20;;;8.70;99.90;;;;;;5034943;28;20391;-68
2022/09/22 02:06:12;;;;;;;2.40;2.20;;;8.70;99.90;;;;;;5034817;28;20386;-68
2022/09/22 02:09:13;;;;;;;3.00;2.60;;;8.60;99.90;;;;;;5034950;28;20423;-68
2022/09/22 02:11:39;;;;;;;3.73;3.07;;;8.60;99.90;;;;;;5031696;28;20477;-68
2022/09/22 02:14:05;;;;;;;4.83;3.00;;;8.50;99.90;;;;;;5034589;28;20820;-67
2022/09/22 02:16:32;;;;;;;3.10;2.80;;;8.50;99.90;;;;;;5034513;28;20221;-68
2022/09/22 02:19:10;;;;;;;2.80;2.60;;;8.50;99.90;;;;;;5034429;28;20432;-68
2022/09/22 02:21:38;;;;;;;3.50;2.83;;;8.50;99.90;;;;;;5033481;28;20455;-68
2022/09/22 02:24:04;;;;;;;4.03;2.53;;;8.40;99.90;;;;;;5034468;28;20410;-68
2022/09/22 02:26:34;;;;;;;2.20;2.00;;;8.40;99.90;;;;;;5034690;28;20407;-68
2022/09/22 02:29:07;;;;;;;3.03;2.77;;;8.40;99.90;;;;;;5034237;28;20529;-68
2022/09/22 02:31:36;;;;;;;3.17;2.87;;;8.40;99.90;;;;;;5034076;28;20825;-68
2022/09/22 02:34:03;;;;;;;3.30;3.00;;;8.30;99.90;;;;;;5034754;28;20426;-68
2022/09/22 02:36:47;;;;;;;2.80;2.60;;;8.40;99.90;;;;;;5034545;28;20415;-68
2022/09/22 02:39:30;;;;;;;2.40;2.20;;;8.30;99.90;;;;;;5034056;28;20518;-68
2022/09/22 02:42:02;;;;;;;2.40;2.20;;;8.30;99.90;;;;;;5034113;28;20474;-69
2022/09/22 02:44:35;;;;;;;4.17;3.77;;;8.20;99.90;;;;;;5034001;28;20802;-68
2022/09/22 02:47:09;;;;;;;4.10;3.50;;;8.20;99.90;;;;;;5032446;28;20532;-69
2022/09/22 02:49:35;;;;;;;3.73;3.40;;;8.20;99.90;;;;;;5034184;28;20833;-68
2022/09/22 02:52:06;;;;;;;3.43;2.80;;;8.20;99.90;;;;;;5033931;28;20410;-68
2022/09/22 02:54:32;;;;;;;3.87;3.27;;;8.20;99.90;;;;;;5033221;28;20394;-69
2022/09/22 02:56:57;;;;;;;4.67;2.90;;;8.10;99.90;;;;;;5033779;28;20424;-68
2022/09/22 02:59:23;;;;;;;3.37;3.03;;;8.20;99.90;;;;;;5033452;28;20714;-69
2022/09/22 03:01:49;;;;;;;3.07;2.80;;;8.10;99.90;;;;;;5032858;28;20692;-68
2022/09/22 03:04:14;;;;;;;3.33;3.03;;;8.10;99.90;;;;;;5033849;28;20549;-69
2022/09/22 03:06:40;;;;;;;2.97;2.77;;;8.10;99.90;;;;;;5033399;28;20631;-68
2022/09/22 03:09:05;;;;;;;6.40;3.27;;;8.00;99.90;;;;;;5033237;28;20191;-69
2022/09/22 03:11:31;;;;;;;3.10;2.80;;;8.10;99.90;;;;;;5033837;28;20175;-69
2022/09/22 03:13:57;;;;;;;4.83;3.50;;;8.10;99.90;;;;;;5033206;28;20631;-69
2022/09/22 03:16:22;;;;;;;3.37;2.57;;;8.10;99.90;;;;;;5031398;28;20192;-69
2022/09/22 03:18:48;;;;;;;2.60;2.40;;;8.10;99.90;;;;;;5033237;28;20204;-69
2022/09/22 03:21:14;;;;;;;3.77;3.33;;;8.10;99.90;;;;;;5033146;28;20279;-68
2022/09/22 03:23:39;;;;;;;3.00;2.70;;;8.10;99.90;;;;;;5033322;28;20171;-68
2022/09/22 03:26:05;;;;;;;3.67;3.03;;;8.00;99.90;;;;;;5031855;28;20182;-68
2022/09/22 03:28:30;;;;;;;3.30;2.80;;;8.10;99.90;;;;;;5033279;28;20226;-68
2022/09/22 03:30:56;;;;;;;3.00;2.70;;;8.10;99.90;;;;;;5032664;28;20655;-69
2022/09/22 03:33:21;;;;;;;3.43;3.00;;;8.00;99.90;;;;;;5032712;28;20175;-69
2022/09/22 03:35:47;;;;;;;5.70;3.07;;;7.90;99.90;;;;;;5033441;28;20174;-69
2022/09/22 03:38:12;;;;;;;3.70;3.10;;;7.90;99.90;;;;;;5032240;28;20554;-69
2022/09/22 03:40:38;;;;;;;3.97;3.30;;;7.90;99.90;;;;;;5031640;28;20167;-69
2022/09/22 03:43:04;;;;;;;5.53;2.90;;;7.90;99.90;;;;;;5032736;28;20281;-69
2022/09/22 03:45:29;;;;;;;3.30;2.80;;;7.90;99.90;;;;;;5032389;28;20175;-68
2022/09/22 03:47:55;;;;;;;4.10;3.43;;;7.90;99.90;;;;;;5033497;28;20191;-69
2022/09/22 03:50:20;;;;;;;2.87;2.60;;;8.00;99.90;;;;;;5033207;28;20618;-69
2022/09/22 03:52:46;;;;;;;2.77;2.47;;;8.00;99.90;;;;;;5033212;28;20590;-69
2022/09/22 03:55:12;;;;;;;2.60;2.40;;;7.90;99.90;;;;;;5032944;28;20181;-69
2022/09/22 03:57:38;;;;;;;3.50;2.93;;;7.80;99.90;;;;;;5032665;28;20704;-70
2022/09/22 04:00:05;;;;;;;3.07;2.80;;;7.90;99.90;;;;;;5032633;28;20172;-69
2022/09/22 04:02:31;;;;;;;2.83;2.60;;;7.90;99.90;;;;;;5032329;28;20948;-69
2022/09/22 04:04:56;;;;;;;3.00;2.70;;;7.90;99.90;;;;;;5033357;28;20404;-69
2022/09/22 04:07:22;;;;;;;2.70;2.50;;;8.00;99.90;;;;;;5039676;28;20179;-69
2022/09/22 04:09:47;;;;;;;3.17;2.87;;;8.00;99.90;;;;;;5039375;28;20200;-69
2022/09/22 04:12:13;;;;;;;2.93;2.63;;;8.00;99.90;;;;;;5039650;28;20176;-69
2022/09/22 04:14:38;;;;;;;2.80;2.50;;;8.00;99.90;;;;;;5039310;28;20184;-69
2022/09/22 04:17:04;;;;;;;3.07;2.60;;;8.00;99.90;;;;;;5038878;28;20179;-69
2022/09/22 04:19:34;;;;;;;3.33;2.90;;;8.00;99.90;;;;;;5039545;28;20191;-69
2022/09/22 04:22:01;;;;;;;3.40;3.10;;;7.80;99.90;;;;;;5040133;28;20204;-69
2022/09/22 04:24:26;;;;;;;3.60;3.27;;;7.90;99.90;;;;;;5039208;28;20417;-69
2022/09/22 04:26:52;;;;;;;3.73;3.40;;;7.90;99.90;;;;;;5038785;28;20410;-69
2022/09/22 04:29:17;;;;;;;4.43;3.40;;;7.80;99.90;;;;;;5037457;28;20369;-69
2022/09/22 04:31:43;;;;;;;4.10;3.03;;;7.90;99.90;;;;;;5038501;28;20177;-69
2022/09/22 04:34:08;;;;;;;4.90;3.20;;;7.80;99.90;;;;;;5039092;28;20624;-69
2022/09/22 04:36:34;;;;;;;3.13;2.83;;;7.80;99.90;;;;;;5039500;28;20536;-69
2022/09/22 04:39:02;;;;;;;3.70;3.40;;;7.80;99.90;;;;;;5039167;28;20664;-69
2022/09/22 04:41:28;;;;;;;3.87;3.57;;;7.80;99.90;;;;;;5035044;28;20211;-69
2022/09/22 04:43:54;;;;;;;5.00;3.00;;;7.80;99.90;;;;;;5038760;28;20719;-69
2022/09/22 04:46:19;;;;;;;4.27;3.60;;;7.80;99.90;;;;;;5033578;28;20187;-69
2022/09/22 04:48:45;;;;;;;3.17;2.97;;;7.80;99.90;;;;;;5029593;28;20195;-69
2022/09/22 04:51:10;;;;;;;4.87;3.80;;;7.70;99.90;;;;;;5029545;28;20187;-70
2022/09/22 04:53:36;;;;;;;4.00;3.37;;;7.60;99.90;;;;;;5028905;28;20265;-70
2022/09/22 04:56:01;;;;;;;3.80;3.23;;;7.60;99.90;;;;;;5010836;28;20184;-68
2022/09/22 04:58:27;;;;;;;3.90;3.60;;;7.60;99.90;;;;;;5017543;28;20195;-69
2022/09/22 05:00:54;;;;;;;3.37;3.17;;;7.60;99.90;;;;;;5018747;28;20246;-69
2022/09/22 05:03:20;;;;;;;3.77;3.37;;;7.60;99.90;;;;;;5017890;28;20642;-69
2022/09/22 05:05:46;;;;;;;5.53;3.63;;;7.70;99.90;;;;;;5019089;28;20413;-69
2022/09/22 05:08:12;;;;;;;3.73;3.47;;;7.70;99.90;;;;;;5018751;28;20244;-70
2022/09/22 05:10:38;;;;;;;5.20;4.10;;;7.70;99.90;;;;;;5019938;28;20428;-69
2022/09/22 05:13:04;;;;;;;4.43;3.97;;;7.70;99.90;;;;;;5023931;28;20179;-69
2022/09/22 05:15:31;;;;;;;5.37;4.10;;;7.70;99.90;;;;;;5038794;28;20193;-69
2022/09/22 05:17:58;;;;;;;7.20;4.80;;;7.60;99.90;;;;;;5035142;28;20440;-69
2022/09/22 05:20:23;;;;;;;5.00;4.50;;;7.60;99.90;;;;;;5038130;28;20448;-69
2022/09/22 05:22:51;;;;;;;5.73;4.20;;;7.60;99.90;;;;;;5035363;28;20485;-68
2022/09/22 05:25:18;;;;;;;3.70;3.40;;;7.60;99.90;;;;;;5035041;28;20172;-69
2022/09/22 05:27:48;;;;;;;4.07;3.53;;;7.70;99.90;;;;;;5034958;28;20465;-69
2022/09/22 05:30:14;;;;;;;3.63;3.37;;;7.70;99.90;;;;;;5035188;28;20400;-69
2022/09/22 05:32:44;;;;;;;4.47;3.50;;;7.70;99.90;;;;;;5034878;28;20958;-68
2022/09/22 05:35:11;;;;;;;5.50;3.90;;;7.80;99.90;;;;;;5033841;28;20923;-69
2022/09/22 05:37:37;;;;;;;3.87;3.53;;;7.70;99.90;;;;;;5034949;28;20412;-69
2022/09/22 05:40:05;;;;;;;4.47;4.07;;;7.80;99.90;;;;;;5035167;28;20488;-68
2022/09/22 05:42:30;;;;;;;3.73;3.43;;;7.80;99.90;;;;;;5021218;28;20748;-73
2022/09/22 05:44:56;;;;;;;3.30;3.00;;;7.80;99.90;;;;;;5005653;28;20411;-69
2022/09/22 05:47:22;;;;;;;5.60;3.20;;;7.80;99.90;;;;;;5022348;28;20968;-70
2022/09/22 05:49:47;;;;;;;5.03;3.47;;;7.80;99.90;;;;;;5025444;28;20204;-69
2022/09/22 05:52:13;;;;;;;4.00;3.63;;;7.90;99.90;;;;;;5007661;28;20228;-69
2022/09/22 05:54:38;;;;;;;3.57;3.17;;;8.00;99.90;;;;;;5005771;28;20187;-70
2022/09/22 05:57:04;;;;;;;4.43;3.40;;;8.10;99.90;;;;;;5024581;28;20179;-70
2022/09/22 05:59:29;;;;;;;5.73;3.80;;;8.10;99.90;;;;;;5034736;28;20254;-69
2022/09/22 06:01:55;;;;;;;4.07;3.67;;;8.10;99.90;;;;;;5034302;28;20200;-68
2022/09/22 06:04:21;;;;;;;4.30;4.00;;;8.10;99.90;;;;;;5034606;28;20228;-68
2022/09/22 06:06:46;;;;;;;5.13;4.63;;;8.10;99.90;;;;;;5034327;28;20207;-67
2022/09/22 06:09:12;;;;;;;5.20;3.97;;;8.10;99.90;;;;;;5034345;28;20196;-68
2022/09/22 06:11:37;;;;;;;3.77;3.40;;;8.10;99.90;;;;;;5034485;28;20179;-68
2022/09/22 06:14:03;;;;;;;4.63;4.27;;;8.10;99.90;;;;;;5035095;28;20178;-67
2022/09/22 06:16:30;;;;;;;3.90;3.60;;;8.10;99.90;;;;;;5033682;28;20194;-66
2022/09/22 06:18:55;;;;;;;4.97;4.57;;;8.20;99.90;;;;;;5034137;28;20184;-66
2022/09/22 06:21:21;;;;;;;6.47;5.00;;;8.20;99.90;;;;;;5033794;28;20471;-66
2022/09/22 06:23:47;;;;;;;5.73;4.77;;;8.30;99.90;;;;;;5033872;28;20551;-67
2022/09/22 06:26:12;;;;;;;8.40;5.70;;;8.30;99.90;;;;;;5033979;28;20183;-66
2022/09/22 06:28:38;;;;;;;7.00;5.37;;;8.30;99.90;;;;;;5059029;22;20224;-71
2022/09/22 06:31:04;;;;;;;6.27;5.70;;;8.30;99.90;;;;;;5071993;28;20235;-70
2022/09/22 06:33:29;;;;;;;5.53;4.67;;;8.40;99.90;;;;;;5074848;28;20621;-71
2022/09/22 06:35:57;;;;;;;6.40;5.40;;;8.40;99.90;;;;;;5074332;28;20406;-70
2022/09/22 06:38:22;;;;;;;5.97;5.07;;;8.50;99.90;;;;;;5073663;28;20699;-70
2022/09/22 06:40:48;;;;;;;7.70;4.83;;;8.50;99.90;;;;;;5054316;28;20416;-71
2022/09/22 06:43:21;;;;;;;5.80;5.10;;;8.50;99.90;;;;;;5054241;28;20222;-70
2022/09/22 06:45:47;;;;;;;7.20;6.20;;;8.60;99.90;;;;;;5052848;28;20178;-71
2022/09/22 06:48:13;;;;;;;5.30;4.80;;;8.60;99.90;;;;;;5054337;28;20424;-71
2022/09/22 06:50:39;;;;;;;5.50;5.00;;;8.60;99.90;;;;;;5053946;28;20438;-70
2022/09/22 06:53:07;;;;;;;8.13;4.83;;;8.80;99.90;;;;;;5054518;28;20165;-71
2022/09/22 06:55:34;;;;;;;5.93;5.33;;;8.90;99.90;;;;;;5053939;28;20925;-71
2022/09/22 06:58:01;;;;;;;5.63;5.17;;;9.00;99.90;;;;;;5052726;28;20416;-70
2022/09/22 07:00:31;;;;;;;5.43;4.93;;;9.20;99.90;;;;;;5053679;28;20926;-71
2022/09/22 07:03:14;;;;;;;5.70;4.47;;;9.30;99.90;;;;;;5054179;28;20543;-71
2022/09/22 07:05:42;;;;;;;5.80;5.23;;;9.40;99.90;;;;;;5054500;28;20503;-70
2022/09/22 07:08:07;;;;;;;5.70;4.30;;;9.60;99.90;;;;;;5054811;28;20403;-71
2022/09/22 07:10:36;;;;;;;6.50;5.50;;;9.70;99.90;;;;;;5054961;28;20424;-71
2022/09/22 07:13:04;;;;;;;5.50;5.10;;;9.80;99.90;;;;;;5056096;28;20694;-72
2022/09/22 07:15:31;;;;;;;4.83;4.40;;;10.00;99.90;;;;;;5054381;28;20414;-71
2022/09/22 07:17:57;;;;;;;6.40;5.83;;;10.10;99.90;;;;;;5055463;28;20428;-72
2022/09/22 07:20:22;;;;;;;5.80;5.30;;;10.20;99.90;;;;;;5055706;28;20961;-73
2022/09/22 07:22:48;;;;;;;5.60;5.00;;;10.30;99.90;;;;;;5053754;28;20244;-73
2022/09/22 07:25:15;;;;;;;6.27;5.67;;;10.40;99.90;;;;;;5053965;28;20170;-71
2022/09/22 07:27:41;;;;;;;5.37;4.87;;;10.50;99.90;;;;;;5054080;28;20257;-71
2022/09/22 07:30:09;;;;;;;5.67;5.20;;;10.70;99.90;;;;;;5053011;28;20483;-73
2022/09/22 07:32:34;;;;;;;6.87;5.67;;;10.70;99.90;;;;;;5053477;28;20195;-70
2022/09/22 07:35:01;;;;;;;6.00;5.17;;;10.90;99.90;;;;;;5054133;28;20444;-72
2022/09/22 07:37:28;;;;;;;9.40;6.30;;;11.00;99.90;;;;;;5053695;28;20174;-72
2022/09/22 07:39:54;;;;;;;6.87;6.20;;;10.80;99.90;;;;;;5052945;28;20923;-71
2022/09/22 07:42:20;;;;;;;9.43;8.23;;;10.70;99.90;;;;;;5053563;28;20498;-70
2022/09/22 07:50:16;;;;;;;13.97;9.37;;;10.50;99.90;;;;;;5053678;28;20423;-71
2022/09/22 07:52:42;;;;;;;15.67;9.03;;;10.30;99.90;;;;;;5053778;28;20406;-71
2022/09/22 07:55:08;;;;;;;13.50;9.40;;;10.30;99.90;;;;;;5053577;28;20408;-72
2022/09/22 07:57:33;;;;;;;11.73;8.90;;;10.40;99.90;;;;;;5053325;28;20472;-71
2022/09/22 07:59:59;;;;;;;11.37;8.87;;;10.50;99.90;;;;;;5053701;28;20568;-71
2022/09/22 08:02:26;;;;;;;11.30;9.07;;;10.60;99.90;;;;;;5053203;28;20200;-72
2022/09/22 08:04:51;;;;;;;18.93;10.40;;;10.60;99.90;;;;;;5054038;28;20158;-71
2022/09/22 08:07:17;;;;;;;10.47;9.37;;;10.90;99.90;;;;;;5053702;28;20397;-70
2022/09/22 08:09:43;;;;;;;10.90;9.07;;;11.20;99.90;;;;;;5053270;28;20179;-71
2022/09/22 08:12:09;;;;;;;16.70;9.60;;;11.30;99.90;;;;;;5053233;28;20706;-69
2022/09/22 08:14:34;;;;;;;10.37;9.20;;;11.50;99.90;;;;;;5053220;28;20159;-69
2022/09/22 08:17:00;;;;;;;12.23;8.40;;;11.50;99.90;;;;;;5052632;28;20408;-71
2022/09/22 08:19:26;;;;;;;9.80;8.33;;;11.50;99.90;;;;;;5053119;28;20191;-70
2022/09/22 08:21:52;;;;;;;18.63;10.23;;;11.70;99.90;;;;;;5053286;28;20198;-71
2022/09/22 08:24:21;;;;;;;10.00;7.60;;;11.70;99.90;;;;;;5053072;28;20167;-72
2022/09/22 08:26:51;;;;;;;7.73;6.10;;;11.80;99.90;;;;;;5052978;28;20401;-72
2022/09/22 08:29:17;;;;;;;5.70;5.07;;;12.10;99.90;;;;;;5053230;28;20955;-71
2022/09/22 08:31:45;;;;;;;6.70;3.80;;;12.40;99.90;;;;;;5053070;28;20405;-71
2022/09/22 08:34:12;;;;;;;4.37;3.47;;;12.60;99.90;;;;;;5051842;28;20185;-71
2022/09/22 08:36:38;;;;;;;3.87;3.50;;;12.80;99.90;;;;;;5052195;28;21128;-71
2022/09/22 08:39:04;;;;;;;4.73;3.97;;;12.80;99.90;;;;;;5052988;28;20413;-72
2022/09/22 08:41:38;;;;;;;8.10;5.90;;;12.90;99.90;;;;;;5052641;28;20806;-71
2022/09/22 08:44:09;;;;;;;5.40;4.53;;;13.10;99.90;;;;;;5053125;28;20155;-70
2022/09/22 08:46:37;;;;;;;3.00;2.70;;;13.10;99.90;;;;;;5052749;28;20417;-68
2022/09/22 08:52:15;;;;;;;2.63;2.43;;;13.30;99.90;;;;;;5052993;28;20377;-71
2022/09/22 08:54:43;;;;;;;4.10;2.87;;;13.40;99.90;;;;;;5056699;28;20739;-70
2022/09/22 08:57:24;;;;;;;3.40;2.33;;;13.50;99.90;;;;;;5056558;28;20400;-70
2022/09/22 08:59:54;;;;;;;2.70;2.17;;;13.70;99.90;;;;;;5056761;28;20418;-71
2022/09/22 09:02:41;;;;;;;3.40;2.23;;;13.70;99.90;;;;;;5056032;28;20448;-70
2022/09/22 09:05:28;;;;;;;6.40;2.80;;;13.80;99.90;;;;;;5056742;28;20432;-70
2022/09/22 09:08:27;;;;;;;2.90;1.97;;;13.70;99.90;;;;;;5056342;28;20399;-71
2022/09/22 09:10:54;;;;;;;4.17;2.40;;;13.90;99.90;;;;;;5056772;28;20720;-70
2022/09/22 09:13:41;;;;;;;4.53;2.20;;;13.90;99.90;;;;;;5056096;28;20842;-71
2022/09/22 09:16:19;;;;;;;2.80;2.40;;;13.90;99.90;;;;;;5056402;28;20408;-71
2022/09/22 09:18:56;;;;;;;2.13;1.90;;;14.10;99.90;;;;;;5056699;28;20423;-71
2022/09/22 09:21:23;;;;;;;5.47;2.47;;;14.10;99.90;;;;;;5055916;28;20472;-70
2022/09/22 09:23:55;;;;;;;3.33;2.40;;;14.00;99.90;;;;;;5056440;28;20470;-70
2022/09/22 09:26:22;;;;;;;2.90;2.10;;;14.10;99.90;;;;;;5056376;28;20393;-70
2022/09/22 09:28:56;;;;;;;3.07;1.80;;;14.30;99.90;;;;;;5056338;28;20446;-70
2022/09/22 09:31:30;;;;;;;2.53;2.00;;;14.30;99.90;;;;;;5055803;28;20406;-69
2022/09/22 09:34:01;;;;;;;2.27;2.07;;;14.20;99.90;;;;;;5056365;28;20411;-70
2022/09/22 09:36:37;;;;;;;2.30;1.53;;;14.30;99.90;;;;;;5056099;28;20379;-71
2022/09/22 09:39:15;;;;;;;4.23;2.20;;;14.50;99.90;;;;;;5055958;28;20510;-71
2022/09/22 09:41:45;;;;;;;2.20;2.00;;;14.70;99.90;;;;;;5056302;28;20439;-70
2022/09/22 09:44:29;;;;;;;2.37;2.17;;;14.70;99.90;;;;;;5056050;28;20796;-70
2022/09/22 09:47:16;;;;;;;2.17;1.97;;;14.80;99.90;;;;;;5055110;28;20782;-71
2022/09/22 09:49:42;;;;;;;2.47;2.27;;;14.90;99.90;;;;;;5055482;28;20518;-71
2022/09/22 09:52:13;;;;;;;2.07;1.87;;;15.00;99.90;;;;;;5054156;28;20424;-69
2022/09/22 09:54:45;;;;;;;2.20;2.00;;;15.20;99.90;;;;;;5055005;28;20407;-70
2022/09/22 09:57:13;;;;;;;2.23;1.97;;;15.30;99.90;;;;;;5055590;28;20404;-69
2022/09/22 10:02:32;;;;;;;2.07;1.77;;;15.10;99.90;;;;;;5054507;28;20461;-69
2022/09/22 10:05:16;;;;;;;2.27;2.07;;;15.10;99.90;;;;;;5054831;28;20404;-69
2022/09/22 10:07:47;;;;;;;1.40;1.30;;;15.30;99.90;;;;;;5055992;28;20442;-68
2022/09/22 10:10:28;;;;;;;4.50;2.33;;;15.50;99.90;;;;;;5055492;28;20782;-69
2022/09/22 10:13:22;;;;;;;2.17;1.97;;;15.70;99.90;;;;;;5055389;28;20468;-69
2022/09/22 10:16:25;;;;;;;2.53;2.00;;;15.90;99.90;;;;;;5055190;28;20393;-69
2022/09/22 10:19:23;;;;;;;2.30;2.00;;;16.10;99.90;;;;;;5053355;28;20471;-69
2022/09/22 10:21:49;;;;;;;3.63;1.80;;;16.30;99.90;;;;;;5055053;28;20535;-69
2022/09/22 10:24:31;;;;;;;2.20;1.87;;;16.10;99.90;;;;;;5055079;28;20530;-68
2022/09/22 10:26:57;;;;;;;2.07;1.87;;;16.30;99.90;;;;;;5053688;28;20416;-68
2022/09/22 10:29:24;;;;;;;2.33;1.90;;;16.20;99.90;;;;;;5053418;28;20999;-71
2022/09/22 10:32:26;;;;;;;1.63;1.53;;;16.40;99.90;;;;;;5054464;28;20910;-68
2022/09/22 10:34:55;;;;;;;2.47;1.60;;;16.50;99.90;;;;;;5013556;28;20428;-69
2022/09/22 10:37:26;;;;;;;2.50;1.53;;;16.70;99.90;;;;;;5048436;28;20500;-69
2022/09/22 10:39:55;;;;;;;3.80;1.67;;;17.20;98.60;;;;;;5054731;28;20436;-68
2022/09/22 10:42:24;;;;;;;1.77;1.30;;;17.80;97.60;;;;;;5053335;28;20445;-70
2022/09/22 10:44:51;;;;;;;1.57;1.00;;;18.60;97.30;;;;;;5054287;28;20398;-68
2022/09/22 10:47:26;;;;;;;2.10;1.10;;;19.30;94.70;;;;;;5053400;28;20417;-68
2022/09/22 10:50:08;;;;;;;2.13;1.37;;;19.50;93.90;;;;;;5054890;28;20431;-68
2022/09/22 10:53:04;;;;;;;2.17;1.57;;;19.20;93.40;;;;;;5055310;28;20397;-68
2022/09/22 10:55:42;;;;;;;2.10;1.50;;;19.10;94.80;;;;;;5035142;28;20413;-68
2022/09/22 10:58:19;;;;;;;2.43;1.30;;;18.70;94.00;;;;;;5055246;28;20784;-69
2022/09/22 11:00:46;;;;;;;1.17;1.07;;;19.00;94.50;;;;;;5054475;28;20408;-69
2022/09/22 11:03:21;;;;;;;2.40;1.47;;;19.70;94.10;;;;;;5054267;28;20822;-70
2022/09/22 11:12:32;;;;;;;2.13;1.53;;;21.70;87.10;;;;;;5054874;28;20482;-69
2022/09/22 11:15:18;;;;;;;4.10;1.20;;;23.40;83.10;;;;;;5053825;28;20382;-69
2022/09/22 11:17:55;;;;;;;2.40;1.30;;;24.10;76.00;;;;;;5054355;28;20408;-68
2022/09/22 11:20:37;;;;;;;1.63;1.20;;;22.80;76.90;;;;;;5054875;28;20413;-70
2022/09/22 11:23:30;;;;;;;1.63;1.20;;;23.90;77.20;;;;;;5054224;28;20532;-69
2022/09/22 11:26:18;;;;;;;3.03;1.10;;;24.10;73.20;;;;;;5054643;28;20477;-68
2022/09/22 11:29:19;;;;;;;1.47;1.27;;;23.80;73.00;;;;;;5052252;28;20448;-70
2022/09/22 11:31:52;;;;;;;1.37;1.10;;;25.20;69.70;;;;;;5017605;28;20410;-69
2022/09/22 11:34:41;;;;;;;2.90;1.30;;;25.60;65.50;;;;;;5033921;28;20445;-69
2022/09/22 11:37:25;;;;;;;3.50;1.37;;;25.70;66.10;;;;;;5034318;28;20478;-70
2022/09/22 11:40:16;;;;;;;3.63;1.53;;;25.00;65.30;;;;;;5033701;28;20429;-69
2022/09/22 11:42:54;;;;;;;2.10;1.27;;;24.70;65.30;;;;;;5034351;28;20429;-70
2022/09/22 11:45:50;;;;;;;1.60;1.10;;;25.20;66.40;;;;;;5034446;28;20383;-70
2022/09/22 11:48:30;;;;;;;6.63;1.20;;;24.80;62.10;;;;;;5033570;28;20391;-69
2022/09/22 11:51:34;;;;;;;1.70;1.07;;;24.50;63.80;;;;;;5034159;28;20797;-70
2022/09/22 11:54:08;;;;;;;1.93;1.50;;;24.70;61.90;;;;;;5026487;28;20437;-70
2022/09/22 11:56:48;;;;;;;1.40;1.13;;;24.70;62.80;;;;;;5034280;28;20382;-70
2022/09/22 11:59:44;;;;;;;2.23;1.60;;;23.70;64.30;;;;;;5034060;28;20453;-69
2022/09/22 12:02:36;;;;;;;1.93;1.27;;;24.00;66.40;;;;;;5033311;28;20444;-71
2022/09/22 12:05:07;;;;;;;1.30;1.10;;;24.10;62.20;;;;;;5033475;28;20385;-71
2022/09/22 12:07:44;;;;;;;3.17;1.10;;;24.00;63.00;;;;;;5033982;28;20936;-69
2022/09/22 12:10:39;;;;;;;1.57;1.47;;;24.70;61.90;;;;;;5033644;28;20418;-69
2022/09/22 12:13:16;;;;;;;1.50;1.00;;;25.40;61.60;;;;;;5032227;28;20501;-69
2022/09/22 12:16:22;;;;;;;2.50;1.40;;;26.30;57.60;;;;;;5033497;28;20485;-70
2022/09/22 12:19:14;;;;;;;1.63;1.00;;;25.70;58.00;;;;;;5011360;28;20995;-69
2022/09/22 12:21:55;;;;;;;1.40;1.17;;;25.30;57.80;;;;;;5052440;28;20974;-70
2022/09/22 12:24:20;;;;;;;1.33;0.90;;;25.80;57.20;;;;;;5053310;28;20443;-70
2022/09/22 12:26:48;;;;;;;2.50;1.10;;;26.10;58.10;;;;;;5054575;28;20773;-70
2022/09/22 12:29:14;;;;;;;1.40;1.10;;;25.60;57.20;;;;;;5056985;28;20277;-70
2022/09/22 12:31:46;;;;;;;1.10;1.00;;;25.50;58.40;;;;;;5057076;28;20500;-70
2022/09/22 12:34:17;;;;;;;2.00;1.07;;;25.20;57.20;;;;;;5057457;28;20166;-71
2022/09/22 12:36:43;;;;;;;1.80;1.10;;;26.00;55.60;;;;;;5057656;28;20505;-71
2022/09/22 12:39:16;;;;;;;1.27;1.00;;;27.00;54.50;;;;;;5078128;23;20481;-72
2022/09/22 12:41:55;;;;;;;3.30;1.20;;;26.90;53.60;;;;;;5056622;28;20464;-69
2022/09/22 12:44:24;;;;;;;2.87;1.30;;;27.20;51.70;;;;;;5056438;28;20467;-69
2022/09/22 12:46:52;;;;;;;1.57;0.90;;;25.70;56.00;;;;;;5063709;28;20482;-70
2022/09/22 12:49:22;;;;;;;1.20;0.90;;;25.80;55.80;;;;;;5076418;28;20424;-70
2022/09/22 12:51:48;;;;;;;1.97;1.10;;;26.00;56.30;;;;;;5076698;28;20381;-70
2022/09/22 12:54:25;;;;;;;1.10;0.90;;;26.70;53.70;;;;;;5076216;28;20407;-70
2022/09/22 12:57:05;;;;;;;1.50;1.00;;;27.60;52.20;;;;;;5077506;28;20429;-68
2022/09/22 12:59:37;;;;;;;1.47;1.10;;;27.00;50.90;;;;;;5076282;28;20426;-69
2022/09/22 13:02:29;;;;;;;4.07;1.00;;;26.60;52.90;;;;;;5075831;28;20970;-70
2022/09/22 13:04:55;;;;;;;1.23;1.10;;;28.10;53.20;;;;;;5070251;28;20495;-70
2022/09/22 13:07:37;;;;;;;2.87;1.23;;;26.70;52.10;;;;;;5075827;28;20499;-70
2022/09/22 13:10:23;;;;;;;2.60;1.00;;;26.60;52.40;;;;;;5075645;28;20212;-70
2022/09/22 13:13:01;;;;;;;2.63;1.00;;;27.00;52.00;;;;;;5054871;28;20412;-70
2022/09/22 13:15:27;;;;;;;2.03;1.00;;;26.90;52.50;;;;;;5074565;28;20408;-71
2022/09/22 13:17:53;;;;;;;1.13;1.00;;;27.50;52.60;;;;;;5075181;28;20950;-70
2022/09/22 13:20:21;;;;;;;1.10;0.83;;;27.80;50.30;;;;;;5075444;28;20420;-70
2022/09/22 13:22:46;;;;;;;2.47;1.00;;;28.00;50.30;;;;;;5075911;28;20441;-70
2022/09/22 13:25:20;;;;;;;1.10;1.00;;;27.70;49.30;;;;;;5075283;28;20446;-70
2022/09/22 13:27:46;;;;;;;5.00;1.00;;;28.20;49.00;;;;;;5075480;28;20150;-70
2022/09/22 13:30:13;;;;;;;1.00;0.90;;;27.50;49.30;;;;;;5071480;28;20516;-70
2022/09/22 13:32:39;;;;;;;0.90;0.80;;;26.80;51.10;;;;;;5054175;28;20268;-70